Penil Barcena — EA3690 — position and weather

sailwx.info

Track history (hours):
 
Tides and Currents Weather Stations Pressure Air Temp Water Temp Dewpoint Dewpoint Depression Visibility Wind Speed Wind Dir Waves Ship Positions

Penil Barcena

Last reported at 2018-Jun-25 19:30 UTC. Time now 2018-Jun-25 19:29 UTC.
Position N 43°51' W 002°12'.

Length 21 m.

Type: Ship. MMSI: 224069650.

Date/timePositionNaut miles runAvg speedWind from/ knotsBaromVisibWave heightAir tempDewpointWater temp
2018-Jun-25 19:30N 43°51' W 002°12'0 0.7
2018-Jun-25 19:00N 43°50' W 002°12'1 1.1
2018-Jun-25 18:30N 43°50' W 002°12'1 1.3
2018-Jun-25 18:00N 43°49' W 002°12'1 2.2
2018-Jun-25 17:30N 43°49' W 002°13'4 7.7
2018-Jun-25 17:00N 43°47' W 002°18'4 7.9
2018-Jun-25 16:30N 43°45' W 002°23'4 8.0
2018-Jun-25 16:00N 43°43' W 002°28'4 8.0
2018-Jun-25 15:30N 43°41' W 002°32'4 8.0
2018-Jun-25 15:00N 43°39' W 002°37'3 5.7
2018-Jun-25 14:30N 43°36' W 002°39'1 2.9
2018-Jun-25 14:00N 43°35' W 002°38'0 0.9
2018-Jun-25 13:30N 43°35' W 002°39'1 1.2
2018-Jun-25 13:00N 43°36' W 002°39'1 1.3
2018-Jun-25 12:30N 43°36' W 002°39'1 1.4
2018-Jun-25 12:00N 43°37' W 002°39'0 0.9
2018-Jun-25 11:30N 43°37' W 002°40'2 3.6
2018-Jun-25 11:00N 43°35' W 002°40'2 4.5
2018-Jun-25 10:30N 43°36' W 002°42'4 8.0
2018-Jun-25 10:00N 43°36' W 002°48'2 3.5
2018-Jun-25 09:30N 43°36' W 002°50'1 1.1
2018-Jun-25 08:39N 43°36' W 002°52'0 1.2
2018-Jun-25 08:30N 43°36' W 002°52'0 0.4
2018-Jun-25 08:01N 43°36' W 002°52'0 0.6
2018-Jun-25 07:30N 43°37' W 002°52'1 2.0
2018-Jun-25 07:00N 43°37' W 002°53'4 7.9
2018-Jun-25 06:30N 43°36' W 002°58'4 7.9
2018-Jun-25 06:01N 43°36' W 003°04'4 7.8
2018-Jun-25 05:30N 43°35' W 003°09'4 7.9
2018-Jun-25 05:00N 43°35' W 003°15'4 8.1
2018-Jun-25 04:31N 43°34' W 003°20'4 7.9
2018-Jun-25 04:00N 43°33' W 003°25'4 7.6
2018-Jun-25 03:29N 43°33' W 003°31'4 7.6
2018-Jun-25 03:00N 43°32' W 003°36'4 8.2
2018-Jun-25 02:31N 43°32' W 003°41'  
2018-Jun-21 07:11N 43°32' W 003°41'1 8.1
2018-Jun-21 07:00N 43°32' W 003°39'4 9.0
2018-Jun-21 06:31N 43°33' W 003°33'5 9.1
2018-Jun-21 05:56N 43°34' W 003°26'4 8.9
2018-Jun-21 05:31N 43°34' W 003°20'4 8.6
2018-Jun-21 05:00N 43°34' W 003°14'4 8.6
2018-Jun-21 04:30N 43°34' W 003°08'4 8.3
2018-Jun-21 04:00N 43°34' W 003°03'4 8.3
2018-Jun-21 03:31N 43°35' W 002°57'4 8.4
2018-Jun-21 03:01N 43°35' W 002°51'4 8.8
2018-Jun-21 02:31N 43°35' W 002°45'4 8.8
2018-Jun-21 02:00N 43°36' W 002°39'4 8.9
2018-Jun-21 01:31N 43°36' W 002°33'4 8.8
2018-Jun-21 01:01N 43°36' W 002°27'4 8.7
2018-Jun-21 00:30N 43°37' W 002°21'4 8.6
2018-Jun-21 00:00N 43°37' W 002°15'4 8.4
2018-Jun-20 23:31N 43°37' W 002°09'4 8.5
2018-Jun-20 23:00N 43°38' W 002°03'4 8.2
2018-Jun-20 22:31N 43°38' W 001°58'3 6.9
2018-Jun-20 22:00N 43°41' W 001°59'4 7.4
2018-Jun-20 21:30N 43°44' W 002°03'4 8.6
2018-Jun-20 21:01N 43°49' W 002°04'4 8.7
2018-Jun-20 20:31N 43°53' W 002°05'4 8.6
2018-Jun-20 20:00N 43°57' W 002°06'4 8.5
2018-Jun-20 19:30N 44°01' W 002°06'4 8.5
2018-Jun-20 19:01N 44°05' W 002°07'4 8.6
2018-Jun-20 18:31N 44°10' W 002°08'2 3.3
2018-Jun-20 18:01N 44°11' W 002°09'0 0.4
2018-Jun-20 17:31N 44°11' W 002°08'1 1.0
2018-Jun-20 17:00N 44°11' W 002°08'1 1.0
2018-Jun-20 16:31N 44°10' W 002°07'1 1.1
2018-Jun-20 16:01N 44°10' W 002°07'1 2.2
2018-Jun-20 15:31N 44°09' W 002°07'4 7.7
2018-Jun-20 15:01N 44°05' W 002°09'2 3.7
2018-Jun-20 14:30N 44°04' W 002°10'0 0.5
2018-Jun-20 14:01N 44°03' W 002°10'1 1.0
2018-Jun-20 13:31N 44°03' W 002°11'1 1.2
2018-Jun-20 13:01N 44°03' W 002°12'1 1.2
2018-Jun-20 12:31N 44°03' W 002°12'0 0.9
2018-Jun-20 12:00N 44°02' W 002°13'3 5.7
2018-Jun-20 11:31N 43°59' W 002°13'4 8.3
2018-Jun-20 11:00N 43°55' W 002°12'4 7.7
2018-Jun-20 10:30N 43°51' W 002°12'2 5.0
2018-Jun-20 10:01N 43°54' W 002°14'0 0.4
2018-Jun-20 09:30N 43°53' W 002°14'1 1.1
2018-Jun-20 09:00N 43°53' W 002°14'1 1.2
2018-Jun-20 08:30N 43°52' W 002°14'1 1.2
2018-Jun-20 08:00N 43°52' W 002°14'1 1.2
2018-Jun-20 07:31N 43°51' W 002°14'3 5.1
2018-Jun-20 07:00N 43°49' W 002°12'2 4.0
2018-Jun-20 06:30N 43°51' W 002°12'0 0.6
2018-Jun-20 06:01N 43°51' W 002°12'1 1.2
2018-Jun-20 05:30N 43°52' W 002°12'1 1.0
2018-Jun-20 05:01N 43°52' W 002°12'0 0.4
2018-Jun-20 04:30N 43°52' W 002°12'2 4.7
2018-Jun-20 04:00N 43°51' W 002°14'0 0.4
2018-Jun-20 03:30N 43°51' W 002°15'0 0.4
2018-Jun-20 03:00N 43°51' W 002°15'0 0.2
2018-Jun-20 02:31N 43°51' W 002°15'0 0.1
2018-Jun-20 02:00N 43°51' W 002°15'0 0.2
2018-Jun-20 01:30N 43°51' W 002°15'0 0.2
2018-Jun-20 01:01N 43°51' W 002°15'0 0.4
2018-Jun-20 00:30N 43°51' W 002°14'0 0.5
2018-Jun-20 00:00N 43°51' W 002°14'1 2.2
2018-Jun-19 23:31N 43°51' W 002°15'4 8.6
2018-Jun-19 23:00N 43°49' W 002°21'4 8.9
2018-Jun-19 22:30N 43°46' W 002°25'5 9.2
2018-Jun-19 22:00N 43°43' W 002°30'5 9.1
2018-Jun-19 21:30N 43°40' W 002°35'4 8.7
2018-Jun-19 21:00N 43°37' W 002°40'3 5.8
2018-Jun-19 20:30N 43°35' W 002°38'2 3.1
2018-Jun-19 20:00N 43°36' W 002°39'0 1.0
2018-Jun-19 19:31N 43°36' W 002°39'1 1.1
2018-Jun-19 19:01N 43°37' W 002°40'0 1.0
2018-Jun-19 18:31N 43°36' W 002°40'1 1.3
2018-Jun-19 18:00N 43°36' W 002°39'0 1.0
2018-Jun-19 17:30N 43°35' W 002°39'3 6.5
2018-Jun-19 17:00N 43°37' W 002°43'4 8.4
2018-Jun-19 16:30N 43°37' W 002°48'2 3.0
2018-Jun-19 16:00N 43°36' W 002°50'0 0.3
2018-Jun-19 15:30N 43°36' W 002°50'1 1.3
2018-Jun-19 15:01N 43°36' W 002°51'1 1.2
2018-Jun-19 14:30N 43°36' W 002°52'0 1.0
2018-Jun-19 14:01N 43°36' W 002°53'2 4.5
2018-Jun-19 13:30N 43°35' W 002°55'4 8.4
2018-Jun-19 13:00N 43°34' W 003°01'7 8.4
2018-Jun-19 12:11N 43°32' W 003°10'2 8.4
2018-Jun-19 12:00N 43°32' W 003°12'4 8.7
2018-Jun-19 11:30N 43°33' W 003°18'5 8.6
2018-Jun-19 10:59N 43°33' W 003°24'5 8.5
2018-Jun-19 10:26N 43°32' W 003°30'4 8.2
2018-Jun-19 10:00N 43°32' W 003°35'  
Track history (hours):
 
Tides and Currents Weather Stations Pressure Air Temp Water Temp Dewpoint Dewpoint Depression Visibility Wind Speed Wind Dir Waves Ship Positions

Penil Barcena

Last reported at 2018-Jun-25 19:30 UTC. Time now 2018-Jun-25 19:29 UTC.
Position N 43°51' W 002°12'.

Length 21 m.

Type: Ship. MMSI: 224069650.

Date/timePositionNaut miles runAvg speedWind from/ knotsBaromVisibWave heightAir tempDewpointWater temp
2018-Jun-25 19:30N 43°51' W 002°12'0 0.7
2018-Jun-25 19:00N 43°50' W 002°12'1 1.1
2018-Jun-25 18:30N 43°50' W 002°12'1 1.3
2018-Jun-25 18:00N 43°49' W 002°12'1 2.2
2018-Jun-25 17:30N 43°49' W 002°13'4 7.7
2018-Jun-25 17:00N 43°47' W 002°18'4 7.9
2018-Jun-25 16:30N 43°45' W 002°23'4 8.0
2018-Jun-25 16:00N 43°43' W 002°28'4 8.0
2018-Jun-25 15:30N 43°41' W 002°32'4 8.0
2018-Jun-25 15:00N 43°39' W 002°37'3 5.7
2018-Jun-25 14:30N 43°36' W 002°39'1 2.9
2018-Jun-25 14:00N 43°35' W 002°38'0 0.9
2018-Jun-25 13:30N 43°35' W 002°39'1 1.2
2018-Jun-25 13:00N 43°36' W 002°39'1 1.3
2018-Jun-25 12:30N 43°36' W 002°39'1 1.4
2018-Jun-25 12:00N 43°37' W 002°39'0 0.9
2018-Jun-25 11:30N 43°37' W 002°40'2 3.6
2018-Jun-25 11:00N 43°35' W 002°40'2 4.5
2018-Jun-25 10:30N 43°36' W 002°42'4 8.0
2018-Jun-25 10:00N 43°36' W 002°48'2 3.5
2018-Jun-25 09:30N 43°36' W 002°50'1 1.1
2018-Jun-25 08:39N 43°36' W 002°52'0 1.2
2018-Jun-25 08:30N 43°36' W 002°52'0 0.4
2018-Jun-25 08:01N 43°36' W 002°52'0 0.6
2018-Jun-25 07:30N 43°37' W 002°52'1 2.0
2018-Jun-25 07:00N 43°37' W 002°53'4 7.9
2018-Jun-25 06:30N 43°36' W 002°58'4 7.9
2018-Jun-25 06:01N 43°36' W 003°04'4 7.8
2018-Jun-25 05:30N 43°35' W 003°09'4 7.9
2018-Jun-25 05:00N 43°35' W 003°15'4 8.1
2018-Jun-25 04:31N 43°34' W 003°20'4 7.9
2018-Jun-25 04:00N 43°33' W 003°25'4 7.6
2018-Jun-25 03:29N 43°33' W 003°31'4 7.6
2018-Jun-25 03:00N 43°32' W 003°36'4 8.2
2018-Jun-25 02:31N 43°32' W 003°41'  
2018-Jun-21 07:11N 43°32' W 003°41'1 8.1
2018-Jun-21 07:00N 43°32' W 003°39'4 9.0
2018-Jun-21 06:31N 43°33' W 003°33'5 9.1
2018-Jun-21 05:56N 43°34' W 003°26'4 8.9
2018-Jun-21 05:31N 43°34' W 003°20'4 8.6
2018-Jun-21 05:00N 43°34' W 003°14'4 8.6
2018-Jun-21 04:30N 43°34' W 003°08'4 8.3
2018-Jun-21 04:00N 43°34' W 003°03'4 8.3
2018-Jun-21 03:31N 43°35' W 002°57'4 8.4
2018-Jun-21 03:01N 43°35' W 002°51'4 8.8
2018-Jun-21 02:31N 43°35' W 002°45'4 8.8
2018-Jun-21 02:00N 43°36' W 002°39'4 8.9
2018-Jun-21 01:31N 43°36' W 002°33'4 8.8
2018-Jun-21 01:01N 43°36' W 002°27'4 8.7
2018-Jun-21 00:30N 43°37' W 002°21'4 8.6
2018-Jun-21 00:00N 43°37' W 002°15'4 8.4
2018-Jun-20 23:31N 43°37' W 002°09'4 8.5
2018-Jun-20 23:00N 43°38' W 002°03'4 8.2
2018-Jun-20 22:31N 43°38' W 001°58'3 6.9
2018-Jun-20 22:00N 43°41' W 001°59'4 7.4
2018-Jun-20 21:30N 43°44' W 002°03'4 8.6
2018-Jun-20 21:01N 43°49' W 002°04'4 8.7
2018-Jun-20 20:31N 43°53' W 002°05'4 8.6
2018-Jun-20 20:00N 43°57' W 002°06'4 8.5
2018-Jun-20 19:30N 44°01' W 002°06'4 8.5
2018-Jun-20 19:01N 44°05' W 002°07'4 8.6
2018-Jun-20 18:31N 44°10' W 002°08'2 3.3
2018-Jun-20 18:01N 44°11' W 002°09'0 0.4
2018-Jun-20 17:31N 44°11' W 002°08'1 1.0
2018-Jun-20 17:00N 44°11' W 002°08'1 1.0
2018-Jun-20 16:31N 44°10' W 002°07'1 1.1
2018-Jun-20 16:01N 44°10' W 002°07'1 2.2
2018-Jun-20 15:31N 44°09' W 002°07'4 7.7
2018-Jun-20 15:01N 44°05' W 002°09'2 3.7
2018-Jun-20 14:30N 44°04' W 002°10'0 0.5
2018-Jun-20 14:01N 44°03' W 002°10'1 1.0
2018-Jun-20 13:31N 44°03' W 002°11'1 1.2
2018-Jun-20 13:01N 44°03' W 002°12'1 1.2
2018-Jun-20 12:31N 44°03' W 002°12'0 0.9
2018-Jun-20 12:00N 44°02' W 002°13'3 5.7
2018-Jun-20 11:31N 43°59' W 002°13'4 8.3
2018-Jun-20 11:00N 43°55' W 002°12'4 7.7
2018-Jun-20 10:30N 43°51' W 002°12'2 5.0
2018-Jun-20 10:01N 43°54' W 002°14'0 0.4
2018-Jun-20 09:30N 43°53' W 002°14'1 1.1
2018-Jun-20 09:00N 43°53' W 002°14'1 1.2
2018-Jun-20 08:30N 43°52' W 002°14'1 1.2
2018-Jun-20 08:00N 43°52' W 002°14'1 1.2
2018-Jun-20 07:31N 43°51' W 002°14'3 5.1
2018-Jun-20 07:00N 43°49' W 002°12'2 4.0
2018-Jun-20 06:30N 43°51' W 002°12'0 0.6
2018-Jun-20 06:01N 43°51' W 002°12'1 1.2
2018-Jun-20 05:30N 43°52' W 002°12'1 1.0
2018-Jun-20 05:01N 43°52' W 002°12'0 0.4
2018-Jun-20 04:30N 43°52' W 002°12'2 4.7
2018-Jun-20 04:00N 43°51' W 002°14'0 0.4
2018-Jun-20 03:30N 43°51' W 002°15'0 0.4
2018-Jun-20 03:00N 43°51' W 002°15'0 0.2
2018-Jun-20 02:31N 43°51' W 002°15'0 0.1
2018-Jun-20 02:00N 43°51' W 002°15'0 0.2
2018-Jun-20 01:30N 43°51' W 002°15'0 0.2
2018-Jun-20 01:01N 43°51' W 002°15'0 0.4
2018-Jun-20 00:30N 43°51' W 002°14'0 0.5
2018-Jun-20 00:00N 43°51' W 002°14'1 2.2
2018-Jun-19 23:31N 43°51' W 002°15'4 8.6
2018-Jun-19 23:00N 43°49' W 002°21'4 8.9
2018-Jun-19 22:30N 43°46' W 002°25'5 9.2
2018-Jun-19 22:00N 43°43' W 002°30'5 9.1
2018-Jun-19 21:30N 43°40' W 002°35'4 8.7
2018-Jun-19 21:00N 43°37' W 002°40'3 5.8
2018-Jun-19 20:30N 43°35' W 002°38'2 3.1
2018-Jun-19 20:00N 43°36' W 002°39'0 1.0
2018-Jun-19 19:31N 43°36' W 002°39'1 1.1
2018-Jun-19 19:01N 43°37' W 002°40'0 1.0
2018-Jun-19 18:31N 43°36' W 002°40'1 1.3
2018-Jun-19 18:00N 43°36' W 002°39'0 1.0
2018-Jun-19 17:30N 43°35' W 002°39'3 6.5
2018-Jun-19 17:00N 43°37' W 002°43'4 8.4
2018-Jun-19 16:30N 43°37' W 002°48'2 3.0
2018-Jun-19 16:00N 43°36' W 002°50'0 0.3
2018-Jun-19 15:30N 43°36' W 002°50'1 1.3
2018-Jun-19 15:01N 43°36' W 002°51'1 1.2
2018-Jun-19 14:30N 43°36' W 002°52'0 1.0
2018-Jun-19 14:01N 43°36' W 002°53'2 4.5
2018-Jun-19 13:30N 43°35' W 002°55'4 8.4
2018-Jun-19 13:00N 43°34' W 003°01'7 8.4
2018-Jun-19 12:11N 43°32' W 003°10'2 8.4
2018-Jun-19 12:00N 43°32' W 003°12'4 8.7
2018-Jun-19 11:30N 43°33' W 003°18'5 8.6
2018-Jun-19 10:59N 43°33' W 003°24'5 8.5
2018-Jun-19 10:26N 43°32' W 003°30'4 8.2
2018-Jun-19 10:00N 43°32' W 003°35'  

Dump ship's entire track history